createdAt,value
2019-01-06T00:01:37.932Z,4.43
2019-01-06T00:04:28.252Z,6.10
2019-01-06T00:07:18.231Z,3.97
2019-01-06T00:10:08.022Z,6.43
2019-01-06T00:12:59.698Z,6.10
2019-01-06T00:15:49.536Z,5.73
2019-01-06T00:18:39.209Z,6.37
2019-01-06T00:21:29.060Z,5.67
2019-01-06T00:24:19.098Z,5.37
2019-01-06T00:27:09.170Z,6.67
2019-01-06T00:29:58.981Z,6.90
2019-01-06T00:32:49.816Z,6.50
2019-01-06T00:35:39.644Z,7.40
2019-01-06T00:38:30.114Z,7.10
2019-01-06T00:41:20.078Z,5.83
2019-01-06T00:44:10.415Z,4.90
2019-01-06T00:46:57.410Z,4.40
2019-01-06T00:49:47.666Z,6.37
2019-01-06T00:52:38.213Z,4.03
2019-01-06T00:55:28.201Z,4.17
2019-01-06T00:58:18.336Z,5.57
2019-01-06T01:01:08.140Z,6.40
2019-01-06T01:03:59.343Z,4.57
2019-01-06T01:06:49.440Z,4.80
2019-01-06T01:09:48.198Z,4.53
2019-01-06T01:12:39.015Z,4.37
2019-01-06T01:15:28.740Z,4.87
2019-01-06T01:18:18.905Z,4.77
2019-01-06T01:21:03.057Z,4.00
2019-01-06T01:23:53.247Z,4.67
2019-01-06T01:26:48.337Z,6.20
2019-01-06T01:29:35.418Z,5.67
2019-01-06T01:32:25.092Z,5.60
2019-01-06T01:35:15.586Z,4.97
2019-01-06T01:38:05.149Z,5.53
2019-01-06T01:40:47.712Z,6.57
2019-01-06T01:43:38.348Z,5.60
2019-01-06T01:46:30.148Z,5.47
2019-01-06T01:49:20.228Z,5.37
2019-01-06T01:52:05.346Z,5.73
2019-01-06T01:54:47.427Z,5.03
2019-01-06T01:57:37.399Z,5.10
2019-01-06T02:00:28.129Z,6.63
2019-01-06T02:03:18.633Z,8.80
2019-01-06T02:06:05.231Z,7.13
2019-01-06T02:08:55.317Z,6.60
2019-01-06T02:11:41.497Z,4.20
2019-01-06T02:14:28.342Z,5.70
2019-01-06T02:17:18.189Z,5.50
2019-01-06T02:20:07.991Z,6.20
2019-01-06T02:22:57.864Z,5.73
2019-01-06T02:25:48.233Z,6.00
2019-01-06T02:28:40.472Z,6.23
2019-01-06T02:31:30.398Z,6.43
2019-01-06T02:34:20.579Z,7.00
2019-01-06T02:37:11.055Z,9.37
2019-01-06T02:40:01.272Z,8.10
2019-01-06T02:43:02.419Z,6.60
2019-01-06T02:45:53.068Z,6.67
2019-01-06T02:48:43.118Z,5.63
2019-01-06T02:51:32.981Z,6.17
2019-01-06T02:54:23.387Z,7.63
2019-01-06T02:57:13.225Z,6.63
2019-01-06T03:00:03.669Z,7.87
2019-01-06T03:02:53.376Z,6.67
2019-01-06T03:05:43.987Z,6.70
2019-01-06T03:08:33.709Z,5.73
2019-01-06T03:11:21.555Z,5.10
2019-01-06T03:14:11.614Z,7.77
2019-01-06T03:17:01.958Z,6.97
2019-01-06T03:19:51.910Z,3.93
2019-01-06T03:22:42.107Z,5.00
2019-01-06T03:25:32.282Z,5.27
2019-01-06T03:28:22.041Z,5.30
2019-01-06T03:31:12.227Z,4.50
2019-01-06T03:34:01.695Z,4.13
2019-01-06T03:36:51.260Z,4.27
2019-01-06T03:39:40.881Z,4.20
2019-01-06T03:42:31.418Z,5.83
2019-01-06T03:45:20.951Z,3.63
2019-01-06T03:48:10.505Z,4.10
2019-01-06T03:51:00.488Z,4.37
2019-01-06T03:53:48.029Z,4.00
2019-01-06T03:56:38.317Z,3.63
2019-01-06T03:59:27.902Z,4.60
2019-01-06T04:02:18.237Z,2.67
2019-01-06T04:05:08.285Z,3.37
2019-01-06T04:07:54.948Z,3.90
2019-01-06T04:10:45.498Z,2.70
2019-01-06T04:13:35.675Z,3.00
2019-01-06T04:16:25.419Z,3.47
2019-01-06T04:19:09.821Z,4.30
2019-01-06T04:21:59.716Z,4.60
2019-01-06T04:24:49.908Z,3.30
2019-01-06T04:27:39.902Z,3.50
2019-01-06T04:30:21.127Z,3.27
2019-01-06T04:33:06.748Z,4.57
2019-01-06T04:35:56.474Z,3.37
2019-01-06T04:38:42.305Z,4.43
2019-01-06T04:41:26.551Z,3.17
2019-01-06T04:44:16.669Z,3.83
2019-01-06T04:47:06.280Z,3.70
2019-01-06T04:49:56.480Z,3.97
2019-01-06T04:52:46.964Z,4.40
2019-01-06T04:55:32.200Z,4.10
2019-01-06T04:58:23.051Z,4.37
2019-01-06T05:01:12.665Z,4.03
2019-01-06T05:04:02.835Z,4.40
2019-01-06T05:06:52.520Z,3.57
2019-01-06T05:09:42.731Z,3.83
2019-01-06T05:12:32.280Z,4.20
2019-01-06T05:15:17.657Z,4.23
2019-01-06T05:18:07.615Z,3.90
2019-01-06T05:20:57.474Z,3.87
2019-01-06T05:23:47.202Z,3.50
2019-01-06T05:26:37.377Z,4.37
2019-01-06T05:29:27.223Z,3.90
2019-01-06T05:32:17.213Z,4.53
2019-01-06T05:35:07.472Z,3.60
2019-01-06T05:37:57.712Z,4.30
2019-01-06T05:40:42.957Z,4.67
2019-01-06T05:43:32.835Z,2.70
2019-01-06T05:46:22.461Z,4.50
2019-01-06T05:49:12.891Z,3.57
2019-01-06T05:51:57.296Z,2.97
2019-01-06T05:54:45.053Z,3.90
2019-01-06T05:57:34.861Z,3.10
2019-01-06T06:00:25.501Z,3.70
2019-01-06T06:03:07.276Z,4.07
2019-01-06T06:05:56.862Z,3.17
2019-01-06T06:08:46.916Z,3.57
2019-01-06T06:11:37.552Z,2.93
2019-01-06T06:14:27.588Z,2.70
2019-01-06T06:17:17.588Z,2.27
2019-01-06T06:20:01.876Z,3.13
2019-01-06T06:22:52.068Z,2.73
2019-01-06T06:25:41.903Z,2.07
2019-01-06T06:28:31.580Z,3.40
2019-01-06T06:31:21.754Z,2.63
2019-01-06T06:34:12.078Z,2.47
2019-01-06T06:37:02.185Z,3.00
2019-01-06T06:39:51.732Z,2.20
2019-01-06T06:42:31.788Z,2.23
2019-01-06T06:45:21.694Z,2.53
2019-01-06T06:48:11.117Z,2.50
2019-01-06T06:51:15.259Z,2.10
2019-01-06T06:54:04.368Z,2.53
2019-01-06T06:56:53.815Z,2.97
2019-01-06T06:59:43.092Z,2.10
2019-01-06T07:03:04.710Z,2.37
2019-01-06T07:05:56.821Z,2.13
2019-01-06T07:08:46.601Z,2.20
2019-01-06T07:11:36.432Z,3.27
2019-01-06T07:14:24.020Z,2.30
2019-01-06T07:17:51.562Z,2.57
2019-01-06T07:20:41.191Z,2.40
2019-01-06T07:23:31.337Z,1.87
2019-01-06T07:26:21.287Z,2.70
2019-01-06T07:29:11.551Z,3.40
2019-01-06T07:31:55.152Z,2.93
2019-01-06T07:34:44.918Z,2.70
2019-01-06T07:37:34.523Z,3.20
2019-01-06T07:40:24.355Z,3.03
2019-01-06T07:43:14.935Z,2.20
2019-01-06T07:46:04.986Z,2.93
2019-01-06T07:48:54.956Z,3.73
2019-01-06T07:51:45.158Z,3.50
2019-01-06T07:54:34.703Z,3.47
2019-01-06T07:57:24.099Z,3.23
2019-01-06T08:00:15.472Z,3.40
2019-01-06T08:03:04.708Z,3.50
2019-01-06T08:05:50.481Z,4.27
2019-01-06T08:08:39.931Z,3.83
2019-01-06T08:11:29.285Z,3.83
2019-01-06T08:14:18.690Z,3.30
2019-01-06T08:17:08.428Z,4.00
2019-01-06T08:19:57.699Z,3.53
2019-01-06T08:22:47.010Z,3.83
2019-01-06T08:25:36.957Z,5.37
2019-01-06T08:28:26.248Z,8.20
2019-01-06T08:31:16.031Z,3.47
2019-01-06T08:34:02.607Z,6.13
2019-01-06T08:36:52.053Z,3.77
2019-01-06T08:39:41.901Z,4.40
2019-01-06T08:42:31.955Z,5.50
2019-01-06T08:45:21.701Z,5.30
2019-01-06T08:48:11.217Z,6.20
2019-01-06T08:51:00.563Z,4.60
2019-01-06T08:53:50.085Z,5.17
2019-01-06T08:56:39.387Z,4.97
2019-01-06T08:59:29.231Z,5.47
2019-01-06T09:02:38.151Z,6.00
2019-01-06T09:05:27.548Z,6.53
2019-01-06T09:08:17.794Z,6.30
2019-01-06T09:11:07.152Z,6.42
2019-01-06T09:13:52.151Z,5.40
2019-01-06T09:16:38.998Z,5.77
2019-01-06T09:19:20.269Z,12.37
2019-01-06T09:22:09.799Z,6.40
2019-01-06T09:24:59.292Z,5.87
2019-01-06T09:27:50.778Z,5.57
2019-01-06T09:30:43.017Z,5.90
2019-01-06T09:33:32.714Z,6.03
2019-01-06T09:36:22.373Z,8.93
2019-01-06T09:39:11.970Z,8.23
2019-01-06T09:41:55.303Z,5.93
2019-01-06T09:44:45.290Z,5.63
2019-01-06T09:47:35.548Z,5.53
2019-01-06T09:50:26.287Z,4.37
2019-01-06T09:53:15.976Z,5.57
2019-01-06T09:56:06.207Z,4.83
2019-01-06T09:58:56.382Z,4.90
2019-01-06T10:01:44.652Z,4.80
2019-01-06T10:04:34.836Z,5.33
2019-01-06T10:07:16.845Z,4.57
2019-01-06T10:10:07.129Z,5.40
2019-01-06T10:12:56.606Z,5.47
2019-01-06T10:15:46.558Z,5.47
2019-01-06T10:18:36.687Z,5.10
2019-01-06T10:21:26.890Z,7.63
2019-01-06T10:24:16.642Z,6.20
2019-01-06T10:27:06.797Z,4.97
2019-01-06T10:29:57.157Z,5.80
2019-01-06T10:32:46.858Z,5.00
2019-01-06T10:35:36.812Z,4.73
2019-01-06T10:38:29.732Z,6.00
2019-01-06T10:41:19.045Z,4.97
2019-01-06T10:44:09.010Z,5.60
2019-01-06T10:46:54.577Z,4.47
2019-01-06T10:49:44.541Z,3.27
2019-01-06T10:52:34.189Z,5.37
2019-01-06T10:55:24.183Z,7.80
2019-01-06T10:58:14.213Z,6.80
2019-01-06T11:01:03.896Z,5.40
2019-01-06T11:03:53.534Z,6.87
2019-01-06T11:06:43.140Z,7.10
2019-01-06T11:09:32.801Z,6.30
2019-01-06T11:12:23.460Z,5.63
2019-01-06T11:15:12.952Z,7.67
2019-01-06T11:18:02.613Z,6.70
2019-01-06T11:20:52.208Z,7.27
2019-01-06T11:23:41.967Z,6.07
2019-01-06T11:26:31.693Z,6.30
2019-01-06T11:29:21.113Z,5.57
2019-01-06T11:32:10.672Z,5.83
2019-01-06T11:35:00.161Z,5.20
2019-01-06T11:37:51.088Z,4.23
2019-01-06T11:40:40.912Z,5.43
2019-01-06T11:43:31.710Z,6.97
2019-01-06T11:46:21.049Z,7.37
2019-01-06T11:49:10.307Z,7.30
2019-01-06T11:51:54.578Z,6.63
2019-01-06T11:54:44.282Z,6.67
2019-01-06T11:57:33.854Z,7.03
2019-01-06T12:00:24.137Z,8.03
2019-01-06T12:03:11.426Z,5.97
2019-01-06T12:06:00.853Z,5.73
2019-01-06T12:08:51.065Z,5.60
2019-01-06T12:11:40.562Z,6.13
2019-01-06T12:14:30.054Z,5.60
2019-01-06T12:17:20.251Z,5.73
2019-01-06T12:20:10.101Z,5.17
2019-01-06T12:23:09.120Z,5.50
2019-01-06T12:25:58.782Z,6.33
2019-01-06T12:28:48.285Z,4.70
2019-01-06T12:31:38.216Z,6.73
2019-01-06T12:34:28.036Z,5.90
2019-01-06T12:37:18.628Z,7.20
2019-01-06T12:40:09.021Z,7.63
2019-01-06T12:42:59.282Z,8.23
2019-01-06T12:45:50.247Z,9.33
2019-01-06T12:48:39.809Z,6.50
2019-01-06T12:51:29.498Z,7.20
2019-01-06T12:54:19.497Z,8.33
2019-01-06T12:57:09.111Z,7.77
2019-01-06T12:59:59.515Z,8.43
2019-01-06T13:02:48.944Z,7.67
2019-01-06T13:05:41.986Z,6.07
2019-01-06T13:08:33.067Z,7.40
2019-01-06T13:11:23.244Z,6.93
2019-01-06T13:14:12.919Z,8.00
2019-01-06T13:17:02.697Z,7.20
2019-01-06T13:19:52.045Z,7.87
2019-01-06T13:22:41.845Z,7.57
2019-01-06T13:25:31.851Z,8.20
2019-01-06T13:28:24.167Z,7.37
2019-01-06T13:31:11.769Z,7.37
2019-01-06T13:33:57.432Z,7.80
2019-01-06T13:36:47.050Z,9.93
2019-01-06T13:39:36.512Z,10.27
2019-01-06T13:42:26.280Z,9.43
2019-01-06T13:45:16.687Z,7.97
2019-01-06T13:48:06.123Z,7.30
2019-01-06T13:50:55.919Z,7.03
2019-01-06T13:53:46.605Z,7.40
2019-01-06T13:56:36.450Z,8.80
2019-01-06T13:59:25.693Z,7.47
2019-01-06T14:02:16.012Z,7.93
2019-01-06T14:05:06.164Z,8.17
2019-01-06T14:07:56.004Z,7.80
2019-01-06T14:10:41.455Z,8.33
2019-01-06T14:13:32.059Z,7.80
2019-01-06T14:16:21.665Z,8.40
2019-01-06T14:19:11.861Z,7.70
2019-01-06T14:22:02.099Z,7.00
2019-01-06T14:24:52.478Z,8.27
2019-01-06T14:27:33.345Z,5.97
2019-01-06T14:30:23.267Z,7.23
2019-01-06T14:33:09.101Z,6.73
2019-01-06T14:36:00.914Z,6.43
2019-01-06T14:38:45.419Z,6.47
2019-01-06T14:41:32.004Z,7.97
2019-01-06T14:44:22.565Z,8.70
2019-01-06T14:47:12.253Z,5.40
2019-01-06T14:50:01.881Z,9.10
2019-01-06T14:52:51.640Z,7.80
2019-01-06T14:55:41.158Z,9.57
2019-01-06T14:58:30.833Z,9.43
2019-01-06T15:01:16.294Z,9.47
2019-01-06T15:04:06.041Z,8.90
2019-01-06T15:06:55.980Z,9.93
2019-01-06T15:09:45.653Z,9.47
2019-01-06T15:12:35.992Z,9.83
2019-01-06T15:15:26.158Z,11.47
2019-01-06T15:18:16.067Z,10.10
2019-01-06T15:21:05.739Z,10.07
2019-01-06T15:23:55.304Z,11.40
2019-01-06T15:26:36.654Z,11.83
2019-01-06T15:29:27.791Z,11.10
2019-01-06T15:32:17.832Z,11.47
2019-01-06T15:35:07.394Z,13.30
2019-01-06T15:37:57.213Z,15.20
2019-01-06T15:40:47.126Z,14.37
2019-01-06T15:43:36.930Z,15.60
2019-01-06T15:46:27.491Z,16.73
2019-01-06T15:49:17.872Z,17.23
2019-01-06T15:52:07.570Z,19.03
2019-01-06T15:54:57.196Z,16.77
2019-01-06T15:57:47.031Z,16.07
2019-01-06T16:00:37.127Z,17.80
2019-01-06T16:03:27.100Z,20.47
2019-01-06T16:06:16.721Z,21.23
2019-01-06T16:09:06.879Z,18.37
2019-01-06T16:11:56.410Z,22.40
2019-01-06T16:14:40.918Z,21.73
2019-01-06T16:17:30.900Z,21.73
2019-01-06T16:20:23.341Z,22.10
2019-01-06T16:23:12.868Z,23.67
2019-01-06T16:26:02.854Z,20.73
2019-01-06T16:28:53.954Z,23.50
2019-01-06T16:31:44.251Z,22.43
2019-01-06T16:34:30.279Z,23.27
2019-01-06T16:37:19.823Z,24.73
2019-01-06T16:40:10.182Z,23.17
2019-01-06T16:42:56.180Z,22.13
2019-01-06T16:45:48.597Z,22.77
2019-01-06T16:48:38.296Z,20.10
2019-01-06T16:51:28.633Z,19.93
2019-01-06T16:54:18.528Z,19.17
2019-01-06T16:57:09.010Z,20.73
2019-01-06T16:59:59.237Z,20.63
2019-01-06T17:02:51.742Z,21.13
2019-01-06T17:05:41.182Z,20.73
2019-01-06T17:08:30.979Z,20.77
2019-01-06T17:11:20.868Z,21.03
2019-01-06T17:14:11.231Z,20.37
2019-01-06T17:17:01.225Z,20.27
2019-01-06T17:19:54.231Z,20.83
2019-01-06T17:22:44.404Z,24.27
2019-01-06T17:25:34.589Z,24.93
2019-01-06T17:28:23.553Z,25.90
2019-01-06T17:31:13.743Z,25.23
2019-01-06T17:33:57.515Z,25.97
2019-01-06T17:36:47.190Z,26.00
2019-01-06T17:39:35.618Z,26.57
2019-01-06T17:42:19.786Z,25.40
2019-01-06T17:45:09.300Z,25.43
2019-01-06T17:47:59.757Z,24.27
2019-01-06T17:50:49.714Z,22.53
2019-01-06T17:53:39.676Z,26.27
2019-01-06T17:56:30.305Z,24.50
2019-01-06T17:59:20.257Z,22.37
2019-01-06T18:02:06.142Z,27.13
2019-01-06T18:04:55.665Z,27.37
2019-01-06T18:07:45.859Z,28.07
2019-01-06T18:10:36.263Z,29.27
2019-01-06T18:13:26.043Z,31.33
2019-01-06T18:16:16.118Z,29.53
2019-01-06T18:19:06.182Z,30.47
2019-01-06T18:21:57.035Z,30.43
2019-01-06T18:24:45.370Z,30.93
2019-01-06T18:27:31.348Z,31.63
2019-01-06T18:30:21.173Z,30.50
2019-01-06T18:33:08.941Z,31.90
2019-01-06T18:35:59.156Z,36.20
2019-01-06T18:38:49.232Z,33.47
2019-01-06T18:41:39.137Z,30.40
2019-01-06T18:44:28.724Z,33.67
2019-01-06T18:47:18.110Z,35.53
2019-01-06T18:50:02.175Z,36.20
2019-01-06T18:52:51.893Z,35.77
2019-01-06T18:55:35.139Z,37.53
2019-01-06T18:58:24.725Z,35.63
2019-01-06T19:01:14.976Z,35.23
2019-01-06T19:04:05.116Z,34.97
2019-01-06T19:06:54.992Z,31.97
2019-01-06T19:09:44.609Z,32.90
2019-01-06T19:12:32.269Z,28.87
2019-01-06T19:15:22.016Z,27.10
2019-01-06T19:18:12.058Z,27.63
2019-01-06T19:21:01.929Z,30.87
2019-01-06T19:23:51.940Z,31.33
2019-01-06T19:26:43.109Z,32.67
2019-01-06T19:29:34.031Z,30.23
2019-01-06T19:32:24.746Z,27.93
2019-01-06T19:35:14.567Z,27.30
2019-01-06T19:38:11.354Z,30.33
2019-01-06T19:41:03.499Z,29.70
2019-01-06T19:43:53.411Z,28.40
2019-01-06T19:46:43.280Z,29.23
2019-01-06T19:49:33.919Z,29.70
2019-01-06T19:52:21.073Z,26.57
2019-01-06T19:55:01.188Z,27.73
2019-01-06T19:57:51.615Z,28.10
2019-01-06T20:00:41.420Z,27.80
2019-01-06T20:03:31.206Z,25.00
2019-01-06T20:06:21.132Z,26.90
2019-01-06T20:09:11.152Z,26.57
2019-01-06T20:12:01.581Z,26.93
2019-01-06T20:14:51.171Z,27.13
2019-01-06T20:17:41.574Z,27.03
2019-01-06T20:20:31.784Z,28.30
2019-01-06T20:23:21.945Z,28.90
2019-01-06T20:26:08.774Z,29.57
2019-01-06T20:28:58.941Z,30.77
2019-01-06T20:31:50.547Z,29.00
2019-01-06T20:34:40.327Z,29.20
2019-01-06T20:37:30.416Z,30.97
2019-01-06T20:40:22.243Z,29.13
2019-01-06T20:43:11.999Z,30.73
2019-01-06T20:46:02.221Z,28.30
2019-01-06T20:48:47.770Z,28.03
2019-01-06T20:51:38.043Z,38.73
2019-01-06T20:54:28.268Z,32.80
2019-01-06T20:57:18.288Z,27.73
2019-01-06T21:00:08.449Z,29.37
2019-01-06T21:02:58.591Z,28.63
2019-01-06T21:05:41.467Z,30.03
2019-01-06T21:08:31.376Z,25.53
2019-01-06T21:11:11.638Z,31.30
2019-01-06T21:14:03.704Z,39.77
2019-01-06T21:16:53.724Z,34.67
2019-01-06T21:19:43.457Z,28.17
2019-01-06T21:22:33.433Z,29.63
2019-01-06T21:25:22.911Z,28.87
2019-01-06T21:28:13.312Z,32.00
2019-01-06T21:31:02.835Z,34.20
2019-01-06T21:33:53.474Z,38.27
2019-01-06T21:36:43.411Z,47.50
2019-01-06T21:39:32.915Z,31.40
2019-01-06T21:42:22.931Z,32.40
2019-01-06T21:45:13.652Z,29.80
2019-01-06T21:47:59.588Z,31.17
2019-01-06T21:50:49.832Z,31.17
2019-01-06T21:53:39.452Z,32.93
2019-01-06T21:56:29.613Z,34.73
2019-01-06T21:59:19.966Z,33.67
2019-01-06T22:02:09.493Z,32.10
2019-01-06T22:04:59.454Z,32.60
2019-01-06T22:07:46.714Z,33.47
2019-01-06T22:10:36.946Z,33.73
2019-01-06T22:13:25.516Z,33.67
2019-01-06T22:16:14.442Z,33.87
2019-01-06T22:19:04.676Z,34.90
2019-01-06T22:21:54.510Z,33.33
2019-01-06T22:24:44.729Z,33.37
2019-01-06T22:27:34.265Z,34.37
2019-01-06T22:30:24.860Z,37.97
2019-01-06T22:33:14.993Z,33.37
2019-01-06T22:36:05.032Z,34.00
2019-01-06T22:38:54.714Z,30.10
2019-01-06T22:41:40.678Z,33.13
2019-01-06T22:44:30.169Z,31.83
2019-01-06T22:47:19.930Z,34.53
2019-01-06T22:50:09.606Z,34.13
2019-01-06T22:52:59.249Z,32.33
2019-01-06T22:55:48.686Z,43.70
2019-01-06T22:58:28.801Z,35.07
2019-01-06T23:01:17.474Z,41.30
2019-01-06T23:04:06.931Z,37.97
2019-01-06T23:06:52.707Z,33.63
2019-01-06T23:09:42.115Z,37.87
2019-01-06T23:12:31.669Z,35.27
2019-01-06T23:15:21.943Z,48.37
2019-01-06T23:18:12.366Z,35.20
2019-01-06T23:21:02.223Z,38.13
2019-01-06T23:23:52.158Z,43.90
2019-01-06T23:26:39.875Z,37.23
2019-01-06T23:29:29.355Z,37.17
2019-01-06T23:32:19.204Z,34.23
2019-01-06T23:35:08.866Z,39.43
2019-01-06T23:37:58.551Z,36.33
2019-01-06T23:40:47.830Z,48.40
2019-01-06T23:43:38.667Z,43.70
2019-01-06T23:46:31.287Z,50.57
2019-01-06T23:49:20.845Z,51.07
2019-01-06T23:52:10.197Z,51.50
2019-01-06T23:55:01.073Z,53.53
2019-01-06T23:57:51.622Z,51.13
